Hernán Figueroa

Recruteur - Atlético Tucumán
4 Avr 2027
Dimanche
Processus

Personnalité

Adaptabilité (9) Ambition (16) Controverse (15) Loyauté (8) Pression (9) Professionnalisme (1) Sportivité (13) Tempérament (18)

Profil

Style d'entraînement Démocratique
Diplôme National B
Détermination 7
Gestion des joueurs 9
Motivation 10
Discipline 11
Satisfaction professionnelle
100%
Fatigue
0%
Rôle Recruteur
Salaire 61.8K p/s
Contrat 14.03.2028

Performance

Comportement Bon
Efficacité de l'entraînement
46%
Développement des joueurs
30%
Prévention des blessures
20%
Mise en place tactique
60%

Événements récents

A participé à une réunion de recrutement maintenant
A recommandé une cible de transfert maintenant
A participé à une réunion de recrutement 7j
A recommandé une cible de transfert 7j
A participé à une réunion de recrutement 7j
A observé un match 7j
A observé un match 7j
A observé un match 14j

Suivi en cours

115
Joueur Club Statut Capacité Confiance Observé Dernière observation Dernier vote
Santiago Colidio Colón Actif 94 / 103 72% 1 28.12.2026 Approuver
Gustavo Wood Tigres Actif 78 / 96 40% 1 29.11.2026 -
Oumar Camara Vitoria Guimaraes Actif 115 / 123 40% 1 29.11.2026 -
Adnan Courtois KV Oostende Refusé 113 / 132 40% 3 27.11.2026 -
Trévis Dago Stade Lavallois Actif 116 / 100 40% 1 24.11.2026 -
Manuel Rodríguez Millonarios Actif 80 / 96 40% 1 19.11.2026 -
Tiago Pucciarelli FK Senica Actif 94 / 112 40% 1 19.11.2026 -
Luke Baartman Chippa United Actif 97 / 122 40% 1 19.11.2026 -
Dilan Godoy Vélez Refusé 108 / 107 40% 2 16.11.2026 -
Jalal Abdullai Molde Refusé 107 / 134 40% 1 16.11.2026 -
Kauã Elias Shakhtar Actif 129 / 133 40% 3 14.11.2026 Observer
Dimitrij Bayramov AZAL Actif 75 / 95 40% 1 14.11.2026 -
Rodrigo Villalba Libertad Actif 89 / 110 40% 1 10.11.2026 -
Luther Zwane Platinum Stars Actif 114 / 111 40% 1 04.11.2026 -
Sergio Rondon Atletico Venezuela Actif 90 / 98 40% 2 30.10.2026 -
Alasana Yirajang Slovan Bratislava Actif 108 / 113 40% 1 30.10.2026 -
Justin-Noël Kalumba Mallorca Actif 108 / 102 40% 2 25.10.2026 -
Mohammed Yahaya Ashanti Gold Actif 73 / 89 40% 1 25.10.2026 -
Álvaro Guevara Alianza Atletico Actif 86 / 95 40% 1 23.10.2026 -
Nikita Kuzin Kaluga Actif 79 / 86 40% 1 19.10.2026 -
Ezekiel Kwame Alladoh Philadelphia Union Actif 108 / 126 40% 2 17.10.2026 -
Jesús Duarte Deportivo Tachira Actif 76 / 91 40% 1 16.10.2026 -
Juan Méndez Mineros de Guayana Actif 80 / 80 40% 1 14.10.2026 -
Alexander Lyng SonderjyskE Actif 110 / 111 40% 1 10.10.2026 -
Eduardo Delmás Olimpia Actif 82 / 96 40% 1 03.10.2026 -
Abubakar Garba Nasarawa United Actif 86 / 92 40% 1 03.10.2026 -
Ciprian Coman Pandurii Actif 111 / 110 40% 3 30.09.2026 -
Xavier Biscayzacú Defensor Sporting Actif 122 / 120 40% 2 22.09.2026 -
Ariath Piol Real Salt Lake Actif 99 / 107 40% 1 22.09.2026 -
Santiago Sandoval Guadalajara Actif 89 / 90 40% 2 21.09.2026 -
Carlos da Rosa Cerro Actif 91 / 93 40% 1 21.09.2026 -
Valentín Luciani Fenix Actif 88 / 106 40% 2 20.09.2026 -
Felipe Serrés Wanderers Actif 89 / 101 40% 1 20.09.2026 -
Luciano Inverso Rentistas Actif 103 / 106 40% 2 16.09.2026 -
Oscar Acuña Libertad Actif 82 / 96 40% 1 16.09.2026 -
Rodrigo Hernández River Plate Actif 89 / 85 40% 1 16.09.2026 -
Luis Palacios Tigres Actif 95 / 112 40% 1 14.09.2026 -
Víctor Cabezas Union Magdalena Actif 118 / 107 40% 1 13.09.2026 -
Gonzalo Falcón Cienciano Actif 117 / 106 40% 1 13.09.2026 -
Sebastian Hernandez Cortulua Actif 113 / 116 40% 3 11.09.2026 -
Felipe Zenobio Tigre Actif 131 / 132 40% 1 11.09.2026 -
Renzo Machado Liverpool Montevideo Actif 113 / 115 40% 1 09.09.2026 -
Rodolfo Moreno Veracruz Actif 90 / 97 40% 1 09.09.2026 -
Bruno Morales Cerro Actif 95 / 88 40% 1 08.09.2026 -
Juan Francisco Rossel Universidad Catolica Actif 85 / 93 40% 1 08.09.2026 -
Manuel Roffo Cerro Porteno Actif 122 / 118 40% 2 07.09.2026 -
Matt Freese New York City Actif 124 / 129 40% 1 07.09.2026 -
John Pulskamp Sporting Kansas City Actif 118 / 108 40% 1 06.09.2026 -
Cristian Barrios Valledupar Actif 105 / 109 40% 1 06.09.2026 -
Felipe Parra Envigado Actif 116 / 123 40% 1 06.09.2026 -
Nathan Silva Pumas UNAM Actif 131 / 127 40% 1 03.09.2026 -
Jean Pierre Rosso Liverpool Montevideo Actif 117 / 116 40% 1 03.09.2026 -
Alan Cervantes Club America Actif 130 / 128 40% 2 01.09.2026 -
Fernando Tapia Club America Actif 128 / 131 40% 2 01.09.2026 -
Mandla Jali SuperSport United Actif 113 / 106 40% 1 01.09.2026 -
Lucas Agazzi Defensor Sporting Actif 116 / 129 40% 1 01.09.2026 -
Nicolás Hernández Atletico Nacional Actif 118 / 117 40% 1 01.09.2026 -
Alfredo Martínez Nacional Actif 92 / 93 40% 2 31.08.2026 -
Santiago Sequeira Central Espanol Actif 90 / 95 40% 1 31.08.2026 -
Sebastián Jaume Albion Actif 94 / 92 40% 2 29.08.2026 -
Hector Uribe La Equidad Actif 106 / 96 40% 1 29.08.2026 -
Andrés Gudiño Cruz Azul Actif 121 / 128 40% 1 28.08.2026 -
Marino Arzamendia Olimpia Actif 112 / 102 40% 1 28.08.2026 -
José Ortiz Atletico Bucaramanga Actif 123 / 110 40% 1 27.08.2026 -
Víctor Guzmán Monterrey Actif 122 / 132 40% 1 27.08.2026 -
Salvador Reyes Leon Actif 119 / 123 40% 1 27.08.2026 -
Cristian Peñate Barranquilla Actif 86 / 89 40% 1 26.08.2026 -
Sipho Chaine Orlando Pirates Actif 114 / 98 40% 1 25.08.2026 -
Egoitz Arana Real Sociedad Actif 106 / 109 40% 1 25.08.2026 -
Frankarlos Benítez Caracas Actif 102 / 92 40% 1 25.08.2026 -
Leandro Díaz O'Higgins Actif 106 / 100 40% 1 24.08.2026 -
Jesús Orozco Chiquete Cruz Azul Actif 135 / 128 40% 1 24.08.2026 -
Franco Romero Toluca Actif 128 / 125 40% 2 23.08.2026 -
Gerardo Arteaga Monterrey Actif 128 / 120 40% 1 23.08.2026 -
Jesús Garza Tigres Actif 124 / 133 40% 1 23.08.2026 -
Roameth Romaña Llaneros Actif 97 / 103 40% 1 22.08.2026 -
Patrick Schulte Columbus Crew Actif 119 / 115 40% 1 22.08.2026 -
Nicolás Sosa La Luz Actif 83 / 87 40% 1 20.08.2026 -
Mateo Levy Cruz Azul Actif 82 / 92 40% 1 20.08.2026 -
Nicolás Campisi Sportivo Luqueno Actif 117 / 116 40% 2 18.08.2026 -
Daniel Acosta Zaglebie Actif 100 / 84 40% 1 18.08.2026 -
Carlos Moreno Pachuca Actif 127 / 123 40% 2 17.08.2026 -
Andrés Llinás Millonarios Actif 120 / 107 40% 1 17.08.2026 -
César Araújo Tigres Actif 124 / 132 40% 1 17.08.2026 -
Miguel Ángel Tapias Guadalajara Actif 114 / 117 40% 1 17.08.2026 -
Diego Osio Deportivo La Guaira Actif 106 / 101 40% 1 15.08.2026 -
Liam Varela Veracruz Actif 126 / 128 40% 1 15.08.2026 -
Patricio Salas Club America Actif 88 / 85 40% 1 14.08.2026 -
Federico Pereira Toluca Actif 138 / 130 40% 1 14.08.2026 -
Vladimir Loroña Tigres Actif 119 / 107 40% 1 14.08.2026 -
Emanuel Cecchini Juventud Actif 116 / 111 40% 1 14.08.2026 -
Ronaldo Pájaro Deportivo Cali Actif 115 / 124 40% 1 13.08.2026 -
Carlos Adrián Sánchez Pachuca Actif 114 / 104 40% 1 13.08.2026 -
Adonis Frías Atlas Actif 132 / 134 40% 1 11.08.2026 -
Alejo Macelli Cerro Actif 106 / 108 40% 1 11.08.2026 -
Stiven Vega Millonarios Actif 117 / 114 40% 1 11.08.2026 -
Pedro Pedraza Pachuca Actif 120 / 130 40% 1 10.08.2026 -
Sebastián Santos Leon Actif 107 / 121 40% 1 10.08.2026 -
Nicolás Garayalde Liverpool Montevideo Actif 109 / 107 40% 1 10.08.2026 -
Moisés Gallo Zulia Actif 101 / 87 40% 1 09.08.2026 -
Mauro Silveira Junior Actif 114 / 116 40% 1 08.08.2026 -
Juan Moreno Cerro Largo Actif 107 / 108 40% 1 08.08.2026 -
Santiago Silva Boston River Actif 114 / 123 40% 1 08.08.2026 -
Jackson Porozo Tijuana Actif 116 / 116 40% 1 07.08.2026 -
Pablo Bennevendo Pumas UNAM Actif 123 / 127 40% 1 07.08.2026 -
Iván Moreno Leon Actif 117 / 114 40% 1 07.08.2026 -
Ángel Espínola Sportivo Luqueno Actif 104 / 102 40% 1 06.08.2026 -
Kevin Angulo America de Cali Actif 100 / 101 40% 1 06.08.2026 -
Nahuel Gelos Miramar Misiones Actif 91 / 109 40% 1 06.08.2026 -
Luis Malagón Club America Actif 135 / 131 40% 1 04.08.2026 -
Cristopher Varela Deportivo La Guaira Actif 110 / 111 40% 1 04.08.2026 -
Joaquim Tigres Actif 129 / 119 40% 1 03.08.2026 -
Sebastián Guerra Barranquilla Actif 101 / 96 40% 1 02.08.2026 -
Diego Romero Universitario Actif 115 / 113 40% 1 02.08.2026 -
Lucas Verza Olimpia Actif 102 / 121 40% 1 01.08.2026 -